Home   Weather   India   Alwar   Past weeks
Flag for India

Past Weather in Alwar, Rajasthan, India — Yesterday and Last 2 Weeks

Currently: 54 °F. Clear. (Weather station: Jaipur / Sanganer, India). See more current weather

Past Weather in Alwar — Graph

°F

Alwar Temperature Yesterday

Maximum temperature yesterday: 77 °F (at 3:30 pm)
Minimum temperature yesterday: 54 °F (at 6:30 am)
Average temperature yesterday: 64 °F

High & Low Weather Summary for the Past Weeks

 TemperatureHumidityPressure
High82 °F (Nov 21, 1:30 pm)88% (Nov 30, 4:00 am)30.15 "Hg (Nov 30, 4:00 am)
Low52 °F (Nov 24, 7:00 am)14% (Nov 23, 2:30 pm)29.86 "Hg (Nov 27, 3:30 pm)
Average66 °F55%30.01 "Hg
* Reported Nov 21 4:30 am — Dec 6 5:00 am, Alwar. Weather by CustomWeather, © 2022

Note: Actual official high and low records may vary slightly from our data, if they occured in-between our weather recording intervals... More about our weather records

Alwar Weather History for the Previous 24 Hours

Scroll right to see more
 ConditionsComfort  
Time TempWeatherWind HumidityBarometerVisibility
5:00 am
Tue, Dec 6
54 °FClear.No wind82%30.07 "Hg1 mi
4:30 am54 °FClear.No wind82%30.07 "Hg1 mi
4:00 am54 °FClear.No wind77%30.07 "Hg1 mi
3:30 am54 °FClear.No wind82%30.07 "Hg1 mi
3:00 am54 °FClear.No wind82%30.04 "Hg1 mi
2:30 am55 °FClear.No wind77%30.04 "Hg1 mi
2:00 am55 °FClear.2 mph77%30.07 "Hg1 mi
1:30 am57 °FClear.2 mph77%30.07 "Hg1 mi
1:00 am57 °FClear.No wind77%30.07 "Hg1 mi
12:30 am57 °FClear.1 mph77%30.07 "Hg1 mi
12:00 am59 °FClear.2 mph72%30.07 "Hg1 mi
11:30 pm
Mon, Dec 5
59 °FClear.No wind72%30.07 "Hg1 mi
10:30 pm63 °FClear.5 mph68%30.09 "Hg1 mi
10:00 pm63 °FClear.3 mph68%30.09 "Hg1 mi
9:30 pm63 °FClear.3 mph64%30.09 "Hg1 mi
9:00 pm63 °FClear.3 mph64%30.09 "Hg1 mi
8:30 pm63 °FClear.No wind59%30.09 "Hg1 mi
8:00 pm64 °FClear.2 mph56%30.09 "Hg1 mi
7:30 pm64 °FClear.5 mph60%30.07 "Hg1 mi
7:00 pm64 °FClear.2 mph60%30.07 "Hg1 mi
6:30 pm66 °FClear.No wind56%30.07 "Hg1 mi
5:30 pm72 °FClear.2 mph50%30.04 "Hg2 mi
5:00 pm73 °FClear.3 mph41%30.04 "Hg2 mi
4:30 pm75 °FClear.3 mph34%30.04 "Hg2 mi
4:00 pm75 °FClear.3 mph39%30.04 "Hg2 mi
3:30 pm77 °FClear.3 mph34%30.04 "Hg2 mi
2:30 pm75 °FClear.3 mph41%30.07 "Hg2 mi
2:00 pm75 °FClear.2 mph41%30.07 "Hg2 mi
1:30 pm75 °FClear.2 mph41%30.07 "Hg2 mi
1:00 pm75 °FClear.2 mph44%30.09 "Hg2 mi
12:30 pm75 °FClear.3 mph44%30.09 "Hg2 mi
12:00 pm73 °FClear.3 mph50%30.12 "Hg2 mi
11:30 am73 °FClear.2 mph50%30.15 "Hg2 mi
11:00 am73 °FClear.2 mph53%30.15 "Hg1 mi
10:30 am72 °FClear.No wind57%30.15 "Hg1 mi
10:00 am68 °FFog.No wind64%30.15 "Hg1 mi
9:30 am68 °FFog.2 mph73%30.15 "Hg1 mi
9:00 am63 °FMild.2 mph88%30.12 "Hg1 mi
8:30 am57 °FCool.No wind88%30.12 "Hg1 mi
8:00 am55 °FCool.No wind82%30.12 "Hg1 mi
7:30 am54 °FCool.No wind82%30.09 "Hg1 mi
7:00 am54 °FFog.No wind88%30.09 "Hg1 mi
6:30 am54 °FFog.No wind82%30.07 "Hg1 mi
Weather by CustomWeather, © 2022

See weather overview